sensor_id;sensor_type;location;lat;lon;timestamp;temperature;humidity
37240;DHT22;23130;48.760;9.178;2023-03-31T00:01:07;10.80;99.90
37240;DHT22;23130;48.760;9.178;2023-03-31T00:03:32;10.90;99.90
37240;DHT22;23130;48.760;9.178;2023-03-31T00:05:59;10.90;99.90
37240;DHT22;23130;48.760;9.178;2023-03-31T00:08:26;10.90;99.90
37240;DHT22;23130;48.760;9.178;2023-03-31T00:10:58;10.90;99.90
37240;DHT22;23130;48.760;9.178;2023-03-31T00:13:25;10.90;99.90
37240;DHT22;23130;48.760;9.178;2023-03-31T00:16:00;10.90;99.90
37240;DHT22;23130;48.760;9.178;2023-03-31T00:18:25;10.90;99.90
37240;DHT22;23130;48.760;9.178;2023-03-31T00:20:52;10.90;99.90
37240;DHT22;23130;48.760;9.178;2023-03-31T00:23:19;10.90;99.90
37240;DHT22;23130;48.760;9.178;2023-03-31T00:25:55;10.90;99.90
37240;DHT22;23130;48.760;9.178;2023-03-31T00:28:21;10.90;99.90
37240;DHT22;23130;48.760;9.178;2023-03-31T00:30:47;10.90;99.90
37240;DHT22;23130;48.760;9.178;2023-03-31T00:33:13;10.80;99.90
37240;DHT22;23130;48.760;9.178;2023-03-31T00:35:38;10.90;99.90
37240;DHT22;23130;48.760;9.178;2023-03-31T00:38:04;10.90;99.90
37240;DHT22;23130;48.760;9.178;2023-03-31T00:40:34;10.90;99.90
37240;DHT22;23130;48.760;9.178;2023-03-31T00:43:00;11.00;99.90
37240;DHT22;23130;48.760;9.178;2023-03-31T00:45:29;11.00;99.90
37240;DHT22;23130;48.760;9.178;2023-03-31T00:48:07;11.10;99.90
37240;DHT22;23130;48.760;9.178;2023-03-31T00:50:49;11.30;99.90
37240;DHT22;23130;48.760;9.178;2023-03-31T00:53:19;11.30;99.90
37240;DHT22;23130;48.760;9.178;2023-03-31T00:55:50;11.40;99.90
37240;DHT22;23130;48.760;9.178;2023-03-31T00:58:16;11.40;99.90
37240;DHT22;23130;48.760;9.178;2023-03-31T01:00:48;11.40;99.90
37240;DHT22;23130;48.760;9.178;2023-03-31T01:03:17;11.40;99.90
37240;DHT22;23130;48.760;9.178;2023-03-31T01:05:56;11.30;99.90
37240;DHT22;23130;48.760;9.178;2023-03-31T01:08:25;11.30;99.90
37240;DHT22;23130;48.760;9.178;2023-03-31T01:10:57;11.30;99.90
37240;DHT22;23130;48.760;9.178;2023-03-31T01:13:25;11.30;99.90
37240;DHT22;23130;48.760;9.178;2023-03-31T01:15:52;11.30;99.90
37240;DHT22;23130;48.760;9.178;2023-03-31T01:18:18;11.30;99.90
37240;DHT22;23130;48.760;9.178;2023-03-31T01:35:06;11.10;99.90
37240;DHT22;23130;48.760;9.178;2023-03-31T01:43:22;11.20;99.90
37240;DHT22;23130;48.760;9.178;2023-03-31T01:48:27;11.20;99.90
37240;DHT22;23130;48.760;9.178;2023-03-31T01:51:31;11.20;99.90
37240;DHT22;23130;48.760;9.178;2023-03-31T01:54:36;11.20;99.90
37240;DHT22;23130;48.760;9.178;2023-03-31T01:57:32;11.20;99.90
37240;DHT22;23130;48.760;9.178;2023-03-31T02:00:14;11.20;99.90
37240;DHT22;23130;48.760;9.178;2023-03-31T02:02:47;11.30;99.90
37240;DHT22;23130;48.760;9.178;2023-03-31T02:05:20;11.20;99.90
37240;DHT22;23130;48.760;9.178;2023-03-31T02:08:06;11.20;99.90
37240;DHT22;23130;48.760;9.178;2023-03-31T02:10:34;11.10;99.90
37240;DHT22;23130;48.760;9.178;2023-03-31T02:13:01;11.00;99.90
37240;DHT22;23130;48.760;9.178;2023-03-31T02:15:31;10.90;99.90
37240;DHT22;23130;48.760;9.178;2023-03-31T02:18:02;10.80;99.90
37240;DHT22;23130;48.760;9.178;2023-03-31T02:20:31;10.70;99.90
37240;DHT22;23130;48.760;9.178;2023-03-31T02:22:58;10.70;99.90
37240;DHT22;23130;48.760;9.178;2023-03-31T02:25:29;10.60;99.90
37240;DHT22;23130;48.760;9.178;2023-03-31T02:27:59;10.60;99.90
37240;DHT22;23130;48.760;9.178;2023-03-31T02:30:33;10.40;99.90
37240;DHT22;23130;48.760;9.178;2023-03-31T02:33:01;10.30;99.90
37240;DHT22;23130;48.760;9.178;2023-03-31T02:35:29;10.20;99.90
37240;DHT22;23130;48.760;9.178;2023-03-31T02:37:55;10.20;99.90
37240;DHT22;23130;48.760;9.178;2023-03-31T02:40:23;10.20;99.90
37240;DHT22;23130;48.760;9.178;2023-03-31T02:42:52;10.20;99.90
37240;DHT22;23130;48.760;9.178;2023-03-31T02:45:41;10.10;99.90
37240;DHT22;23130;48.760;9.178;2023-03-31T02:48:10;10.10;99.90
37240;DHT22;23130;48.760;9.178;2023-03-31T03:02:29;10.10;99.90
37240;DHT22;23130;48.760;9.178;2023-03-31T03:05:12;10.10;99.90
37240;DHT22;23130;48.760;9.178;2023-03-31T03:10:43;10.10;99.90
37240;DHT22;23130;48.760;9.178;2023-03-31T03:16:04;10.00;99.90
37240;DHT22;23130;48.760;9.178;2023-03-31T03:18:32;10.00;99.90
37240;DHT22;23130;48.760;9.178;2023-03-31T03:20:57;10.00;99.90
37240;DHT22;23130;48.760;9.178;2023-03-31T03:23:23;9.90;99.90
37240;DHT22;23130;48.760;9.178;2023-03-31T03:25:48;9.90;99.90
37240;DHT22;23130;48.760;9.178;2023-03-31T03:28:15;9.80;99.90
37240;DHT22;23130;48.760;9.178;2023-03-31T03:30:41;9.70;99.90
37240;DHT22;23130;48.760;9.178;2023-03-31T03:33:07;9.60;99.90
37240;DHT22;23130;48.760;9.178;2023-03-31T03:35:33;9.60;99.90
37240;DHT22;23130;48.760;9.178;2023-03-31T03:37:59;9.50;99.90
37240;DHT22;23130;48.760;9.178;2023-03-31T03:40:24;9.50;99.90
37240;DHT22;23130;48.760;9.178;2023-03-31T03:42:50;9.50;99.90
37240;DHT22;23130;48.760;9.178;2023-03-31T03:45:16;9.50;99.90
37240;DHT22;23130;48.760;9.178;2023-03-31T03:47:41;9.50;99.90
37240;DHT22;23130;48.760;9.178;2023-03-31T03:50:07;9.50;99.90
37240;DHT22;23130;48.760;9.178;2023-03-31T03:52:33;9.60;99.90
37240;DHT22;23130;48.760;9.178;2023-03-31T03:54:59;9.60;99.90
37240;DHT22;23130;48.760;9.178;2023-03-31T03:57:26;9.70;99.90
37240;DHT22;23130;48.760;9.178;2023-03-31T03:59:52;9.70;99.90
37240;DHT22;23130;48.760;9.178;2023-03-31T04:02:17;9.70;99.90
37240;DHT22;23130;48.760;9.178;2023-03-31T04:04:43;9.70;99.90
37240;DHT22;23130;48.760;9.178;2023-03-31T04:07:08;9.70;99.90
37240;DHT22;23130;48.760;9.178;2023-03-31T04:09:34;9.60;99.90
37240;DHT22;23130;48.760;9.178;2023-03-31T04:12:00;9.50;99.90
37240;DHT22;23130;48.760;9.178;2023-03-31T04:14:25;9.40;99.90
37240;DHT22;23130;48.760;9.178;2023-03-31T04:16:51;9.30;99.90
37240;DHT22;23130;48.760;9.178;2023-03-31T04:19:16;9.20;99.90
37240;DHT22;23130;48.760;9.178;2023-03-31T04:21:43;9.20;99.90
37240;DHT22;23130;48.760;9.178;2023-03-31T04:24:15;9.10;99.90
37240;DHT22;23130;48.760;9.178;2023-03-31T04:26:46;9.10;99.90
37240;DHT22;23130;48.760;9.178;2023-03-31T04:29:15;9.20;99.90
37240;DHT22;23130;48.760;9.178;2023-03-31T04:31:42;9.20;99.90
37240;DHT22;23130;48.760;9.178;2023-03-31T04:34:12;9.30;99.90
37240;DHT22;23130;48.760;9.178;2023-03-31T04:36:46;9.40;99.90
37240;DHT22;23130;48.760;9.178;2023-03-31T04:39:12;9.60;99.90
37240;DHT22;23130;48.760;9.178;2023-03-31T04:41:38;9.60;99.90
37240;DHT22;23130;48.760;9.178;2023-03-31T04:44:03;9.60;99.90
37240;DHT22;23130;48.760;9.178;2023-03-31T04:46:29;9.60;99.90
37240;DHT22;23130;48.760;9.178;2023-03-31T04:48:55;9.70;99.90
37240;DHT22;23130;48.760;9.178;2023-03-31T04:51:21;9.80;99.90
37240;DHT22;23130;48.760;9.178;2023-03-31T04:53:46;9.80;99.90
37240;DHT22;23130;48.760;9.178;2023-03-31T04:56:12;9.80;99.90
37240;DHT22;23130;48.760;9.178;2023-03-31T04:58:38;9.80;99.90
37240;DHT22;23130;48.760;9.178;2023-03-31T05:01:04;9.70;99.90
37240;DHT22;23130;48.760;9.178;2023-03-31T05:03:33;9.70;99.90
37240;DHT22;23130;48.760;9.178;2023-03-31T05:05:59;9.80;99.90
37240;DHT22;23130;48.760;9.178;2023-03-31T05:08:25;9.70;99.90
37240;DHT22;23130;48.760;9.178;2023-03-31T05:10:52;9.70;99.90
37240;DHT22;23130;48.760;9.178;2023-03-31T05:13:17;9.70;99.90
37240;DHT22;23130;48.760;9.178;2023-03-31T05:15:43;9.70;99.90
37240;DHT22;23130;48.760;9.178;2023-03-31T05:18:09;9.60;99.90
37240;DHT22;23130;48.760;9.178;2023-03-31T05:20:35;9.50;99.90
37240;DHT22;23130;48.760;9.178;2023-03-31T05:23:00;9.40;99.90
37240;DHT22;23130;48.760;9.178;2023-03-31T05:25:26;9.30;99.90
37240;DHT22;23130;48.760;9.178;2023-03-31T05:27:57;9.20;99.90
37240;DHT22;23130;48.760;9.178;2023-03-31T05:30:24;9.00;99.90
37240;DHT22;23130;48.760;9.178;2023-03-31T05:32:50;8.90;99.90
37240;DHT22;23130;48.760;9.178;2023-03-31T05:35:16;8.90;99.90
37240;DHT22;23130;48.760;9.178;2023-03-31T05:37:42;8.80;99.90
37240;DHT22;23130;48.760;9.178;2023-03-31T05:40:08;8.70;99.90
37240;DHT22;23130;48.760;9.178;2023-03-31T05:42:34;8.70;99.90
37240;DHT22;23130;48.760;9.178;2023-03-31T05:45:00;8.70;99.90
37240;DHT22;23130;48.760;9.178;2023-03-31T05:47:25;8.70;99.90
37240;DHT22;23130;48.760;9.178;2023-03-31T05:49:51;8.60;99.90
37240;DHT22;23130;48.760;9.178;2023-03-31T05:52:17;8.60;99.90
37240;DHT22;23130;48.760;9.178;2023-03-31T05:54:43;8.60;99.90
37240;DHT22;23130;48.760;9.178;2023-03-31T05:57:09;8.60;99.90
37240;DHT22;23130;48.760;9.178;2023-03-31T05:59:35;8.60;99.90
37240;DHT22;23130;48.760;9.178;2023-03-31T06:02:01;8.60;99.90
37240;DHT22;23130;48.760;9.178;2023-03-31T06:04:27;8.60;99.90
37240;DHT22;23130;48.760;9.178;2023-03-31T06:06:53;8.60;99.90
37240;DHT22;23130;48.760;9.178;2023-03-31T06:09:20;8.60;99.90
37240;DHT22;23130;48.760;9.178;2023-03-31T06:11:46;8.60;99.90
37240;DHT22;23130;48.760;9.178;2023-03-31T06:14:11;8.60;99.90
37240;DHT22;23130;48.760;9.178;2023-03-31T06:16:37;8.60;99.90
37240;DHT22;23130;48.760;9.178;2023-03-31T06:19:03;8.70;99.90
37240;DHT22;23130;48.760;9.178;2023-03-31T06:21:28;8.60;99.90
37240;DHT22;23130;48.760;9.178;2023-03-31T06:23:54;8.70;99.90
37240;DHT22;23130;48.760;9.178;2023-03-31T06:26:22;8.70;99.90
37240;DHT22;23130;48.760;9.178;2023-03-31T06:28:48;8.80;99.90
37240;DHT22;23130;48.760;9.178;2023-03-31T06:31:19;8.80;99.90
37240;DHT22;23130;48.760;9.178;2023-03-31T06:33:45;8.90;99.90
37240;DHT22;23130;48.760;9.178;2023-03-31T06:36:13;8.90;99.90
37240;DHT22;23130;48.760;9.178;2023-03-31T06:38:39;8.90;99.90
37240;DHT22;23130;48.760;9.178;2023-03-31T06:41:07;8.90;99.90
37240;DHT22;23130;48.760;9.178;2023-03-31T06:43:33;8.80;99.90
37240;DHT22;23130;48.760;9.178;2023-03-31T06:45:59;8.80;99.90
37240;DHT22;23130;48.760;9.178;2023-03-31T06:48:26;8.80;99.90
37240;DHT22;23130;48.760;9.178;2023-03-31T06:50:52;8.80;99.90
37240;DHT22;23130;48.760;9.178;2023-03-31T06:53:18;8.80;99.90
37240;DHT22;23130;48.760;9.178;2023-03-31T06:55:44;8.80;99.90
37240;DHT22;23130;48.760;9.178;2023-03-31T06:58:09;8.80;99.90
37240;DHT22;23130;48.760;9.178;2023-03-31T07:00:36;8.80;99.90
37240;DHT22;23130;48.760;9.178;2023-03-31T07:03:03;8.90;99.90
37240;DHT22;23130;48.760;9.178;2023-03-31T07:05:29;9.00;99.90
37240;DHT22;23130;48.760;9.178;2023-03-31T07:07:57;9.00;99.90
37240;DHT22;23130;48.760;9.178;2023-03-31T07:10:24;9.10;99.90
37240;DHT22;23130;48.760;9.178;2023-03-31T07:12:50;9.20;99.90
37240;DHT22;23130;48.760;9.178;2023-03-31T07:15:16;9.20;99.90
37240;DHT22;23130;48.760;9.178;2023-03-31T07:17:42;9.20;99.90
37240;DHT22;23130;48.760;9.178;2023-03-31T07:20:12;9.20;99.90
37240;DHT22;23130;48.760;9.178;2023-03-31T07:22:40;9.20;99.90
37240;DHT22;23130;48.760;9.178;2023-03-31T07:25:07;9.30;99.90
37240;DHT22;23130;48.760;9.178;2023-03-31T07:27:33;9.30;99.90
37240;DHT22;23130;48.760;9.178;2023-03-31T07:29:58;9.40;99.90
37240;DHT22;23130;48.760;9.178;2023-03-31T07:32:24;9.40;99.90
37240;DHT22;23130;48.760;9.178;2023-03-31T07:34:49;9.40;99.90
37240;DHT22;23130;48.760;9.178;2023-03-31T07:37:15;9.40;99.90
37240;DHT22;23130;48.760;9.178;2023-03-31T07:39:41;9.40;99.90
37240;DHT22;23130;48.760;9.178;2023-03-31T07:42:06;9.60;99.90
37240;DHT22;23130;48.760;9.178;2023-03-31T07:44:33;10.00;99.90
37240;DHT22;23130;48.760;9.178;2023-03-31T07:46:59;10.20;99.90
37240;DHT22;23130;48.760;9.178;2023-03-31T07:49:29;10.40;99.90
37240;DHT22;23130;48.760;9.178;2023-03-31T07:51:55;10.50;99.90
37240;DHT22;23130;48.760;9.178;2023-03-31T07:54:20;10.40;99.90
37240;DHT22;23130;48.760;9.178;2023-03-31T07:56:46;10.40;99.90
37240;DHT22;23130;48.760;9.178;2023-03-31T07:59:11;10.40;99.90
37240;DHT22;23130;48.760;9.178;2023-03-31T08:01:37;10.40;99.90
37240;DHT22;23130;48.760;9.178;2023-03-31T08:04:02;10.40;99.90
37240;DHT22;23130;48.760;9.178;2023-03-31T08:06:28;10.30;99.90
37240;DHT22;23130;48.760;9.178;2023-03-31T08:08:54;10.20;99.90
37240;DHT22;23130;48.760;9.178;2023-03-31T08:11:20;10.20;99.90
37240;DHT22;23130;48.760;9.178;2023-03-31T08:13:46;10.30;99.90
37240;DHT22;23130;48.760;9.178;2023-03-31T08:16:11;10.40;99.90
37240;DHT22;23130;48.760;9.178;2023-03-31T08:18:37;10.60;99.90
37240;DHT22;23130;48.760;9.178;2023-03-31T08:21:03;10.60;99.90
37240;DHT22;23130;48.760;9.178;2023-03-31T08:23:28;10.70;99.90
37240;DHT22;23130;48.760;9.178;2023-03-31T08:25:54;10.80;99.90
37240;DHT22;23130;48.760;9.178;2023-03-31T08:28:20;10.90;99.90
37240;DHT22;23130;48.760;9.178;2023-03-31T08:30:45;10.90;99.90
37240;DHT22;23130;48.760;9.178;2023-03-31T08:33:11;11.00;99.90
37240;DHT22;23130;48.760;9.178;2023-03-31T08:35:37;11.10;99.90
37240;DHT22;23130;48.760;9.178;2023-03-31T08:38:02;11.20;99.90
37240;DHT22;23130;48.760;9.178;2023-03-31T08:40:29;11.20;99.90
37240;DHT22;23130;48.760;9.178;2023-03-31T08:43:15;11.30;99.90
37240;DHT22;23130;48.760;9.178;2023-03-31T08:45:45;11.30;99.90
37240;DHT22;23130;48.760;9.178;2023-03-31T08:48:45;11.50;99.90
37240;DHT22;23130;48.760;9.178;2023-03-31T08:51:19;11.50;99.90
37240;DHT22;23130;48.760;9.178;2023-03-31T08:53:59;11.70;99.90
37240;DHT22;23130;48.760;9.178;2023-03-31T08:56:29;11.80;99.90
37240;DHT22;23130;48.760;9.178;2023-03-31T08:58:57;11.90;99.90
37240;DHT22;23130;48.760;9.178;2023-03-31T09:01:51;12.00;99.90
37240;DHT22;23130;48.760;9.178;2023-03-31T09:07:06;12.20;99.90
37240;DHT22;23130;48.760;9.178;2023-03-31T09:10:05;12.50;99.90
37240;DHT22;23130;48.760;9.178;2023-03-31T09:12:50;12.70;99.90
37240;DHT22;23130;48.760;9.178;2023-03-31T09:18:37;13.00;99.90
37240;DHT22;23130;48.760;9.178;2023-03-31T09:24:19;13.00;99.90
37240;DHT22;23130;48.760;9.178;2023-03-31T09:26:52;13.10;99.90
37240;DHT22;23130;48.760;9.178;2023-03-31T09:31:51;13.50;99.90
37240;DHT22;23130;48.760;9.178;2023-03-31T09:34:36;13.70;99.90
37240;DHT22;23130;48.760;9.178;2023-03-31T09:37:01;13.90;99.90
37240;DHT22;23130;48.760;9.178;2023-03-31T09:39:27;13.90;99.90
37240;DHT22;23130;48.760;9.178;2023-03-31T09:41:53;13.90;99.90
37240;DHT22;23130;48.760;9.178;2023-03-31T09:44:26;14.00;99.90
37240;DHT22;23130;48.760;9.178;2023-03-31T09:46:53;13.90;99.90
37240;DHT22;23130;48.760;9.178;2023-03-31T09:49:22;13.60;99.90
37240;DHT22;23130;48.760;9.178;2023-03-31T09:52:01;13.50;99.90
37240;DHT22;23130;48.760;9.178;2023-03-31T09:54:35;13.50;99.90
37240;DHT22;23130;48.760;9.178;2023-03-31T09:57:01;13.80;99.90
37240;DHT22;23130;48.760;9.178;2023-03-31T09:59:34;14.00;99.90
37240;DHT22;23130;48.760;9.178;2023-03-31T10:02:16;14.30;99.90
37240;DHT22;23130;48.760;9.178;2023-03-31T10:04:45;14.60;99.90
37240;DHT22;23130;48.760;9.178;2023-03-31T10:07:12;14.70;99.90
37240;DHT22;23130;48.760;9.178;2023-03-31T10:09:38;14.70;99.90
37240;DHT22;23130;48.760;9.178;2023-03-31T10:12:08;14.60;99.90
37240;DHT22;23130;48.760;9.178;2023-03-31T10:14:44;14.60;99.90
37240;DHT22;23130;48.760;9.178;2023-03-31T10:17:14;14.60;99.90
37240;DHT22;23130;48.760;9.178;2023-03-31T10:19:53;14.50;99.90
37240;DHT22;23130;48.760;9.178;2023-03-31T10:24:49;14.50;99.90
37240;DHT22;23130;48.760;9.178;2023-03-31T10:27:22;14.60;99.90
37240;DHT22;23130;48.760;9.178;2023-03-31T10:29:52;14.60;99.90
37240;DHT22;23130;48.760;9.178;2023-03-31T10:32:29;14.70;99.90
37240;DHT22;23130;48.760;9.178;2023-03-31T10:34:56;14.90;99.90
37240;DHT22;23130;48.760;9.178;2023-03-31T10:37:26;15.00;99.90
37240;DHT22;23130;48.760;9.178;2023-03-31T10:40:02;15.10;99.90
37240;DHT22;23130;48.760;9.178;2023-03-31T10:42:30;15.00;99.90
37240;DHT22;23130;48.760;9.178;2023-03-31T10:47:39;14.70;99.90
37240;DHT22;23130;48.760;9.178;2023-03-31T10:50:13;14.80;99.90
37240;DHT22;23130;48.760;9.178;2023-03-31T10:52:45;14.90;99.90
37240;DHT22;23130;48.760;9.178;2023-03-31T10:55:12;15.10;99.90
37240;DHT22;23130;48.760;9.178;2023-03-31T10:57:44;15.40;99.90
37240;DHT22;23130;48.760;9.178;2023-03-31T11:00:20;15.60;99.90
37240;DHT22;23130;48.760;9.178;2023-03-31T11:05:36;15.80;99.90
37240;DHT22;23130;48.760;9.178;2023-03-31T11:16:38;15.60;99.90
37240;DHT22;23130;48.760;9.178;2023-03-31T11:19:36;15.40;99.90
37240;DHT22;23130;48.760;9.178;2023-03-31T11:22:20;14.70;99.90
37240;DHT22;23130;48.760;9.178;2023-03-31T11:27:52;11.70;99.90
37240;DHT22;23130;48.760;9.178;2023-03-31T11:30:45;10.30;99.90
37240;DHT22;23130;48.760;9.178;2023-03-31T11:41:57;8.80;99.90
37240;DHT22;23130;48.760;9.178;2023-03-31T11:44:26;8.90;99.90
37240;DHT22;23130;48.760;9.178;2023-03-31T11:46:57;8.80;99.90
37240;DHT22;23130;48.760;9.178;2023-03-31T11:49:34;8.90;99.90
37240;DHT22;23130;48.760;9.178;2023-03-31T11:52:24;8.90;99.90
37240;DHT22;23130;48.760;9.178;2023-03-31T11:57:40;9.00;99.90
37240;DHT22;23130;48.760;9.178;2023-03-31T12:03:22;9.60;99.90
37240;DHT22;23130;48.760;9.178;2023-03-31T12:05:57;10.10;99.90
37240;DHT22;23130;48.760;9.178;2023-03-31T12:08:36;10.60;99.90
37240;DHT22;23130;48.760;9.178;2023-03-31T12:11:15;11.30;99.90
37240;DHT22;23130;48.760;9.178;2023-03-31T12:13:51;11.70;99.90
37240;DHT22;23130;48.760;9.178;2023-03-31T12:19:39;11.80;99.90
37240;DHT22;23130;48.760;9.178;2023-03-31T12:22:09;11.70;99.90
37240;DHT22;23130;48.760;9.178;2023-03-31T12:24:36;11.70;99.90
37240;DHT22;23130;48.760;9.178;2023-03-31T12:27:16;11.80;99.90
37240;DHT22;23130;48.760;9.178;2023-03-31T12:29:50;11.90;99.90
37240;DHT22;23130;48.760;9.178;2023-03-31T12:32:22;12.20;99.90
37240;DHT22;23130;48.760;9.178;2023-03-31T12:34:54;12.60;99.90
37240;DHT22;23130;48.760;9.178;2023-03-31T12:45:26;12.80;99.90
37240;DHT22;23130;48.760;9.178;2023-03-31T12:48:01;12.80;99.90
37240;DHT22;23130;48.760;9.178;2023-03-31T12:55:58;12.80;99.90
37240;DHT22;23130;48.760;9.178;2023-03-31T13:08:55;13.20;99.90
37240;DHT22;23130;48.760;9.178;2023-03-31T13:14:25;13.20;99.90
37240;DHT22;23130;48.760;9.178;2023-03-31T13:19:36;13.10;99.90
37240;DHT22;23130;48.760;9.178;2023-03-31T13:22:04;13.10;99.90
37240;DHT22;23130;48.760;9.178;2023-03-31T13:24:32;13.20;99.90
37240;DHT22;23130;48.760;9.178;2023-03-31T13:27:33;12.80;99.90
37240;DHT22;23130;48.760;9.178;2023-03-31T13:29:59;12.20;99.90
37240;DHT22;23130;48.760;9.178;2023-03-31T13:32:25;11.60;99.90
37240;DHT22;23130;48.760;9.178;2023-03-31T13:35:13;11.30;99.90
37240;DHT22;23130;48.760;9.178;2023-03-31T13:38:12;11.20;99.90
37240;DHT22;23130;48.760;9.178;2023-03-31T13:40:57;11.20;99.90
37240;DHT22;23130;48.760;9.178;2023-03-31T13:51:55;10.30;99.90
37240;DHT22;23130;48.760;9.178;2023-03-31T14:06:08;9.50;99.90
37240;DHT22;23130;48.760;9.178;2023-03-31T14:11:22;9.20;99.90
37240;DHT22;23130;48.760;9.178;2023-03-31T14:14:13;9.30;99.90
37240;DHT22;23130;48.760;9.178;2023-03-31T14:16:58;9.80;99.90
37240;DHT22;23130;48.760;9.178;2023-03-31T14:27:59;11.80;99.90
37240;DHT22;23130;48.760;9.178;2023-03-31T14:30:39;11.90;99.90
37240;DHT22;23130;48.760;9.178;2023-03-31T14:33:20;11.90;99.90
37240;DHT22;23130;48.760;9.178;2023-03-31T14:36:20;11.80;99.90
37240;DHT22;23130;48.760;9.178;2023-03-31T14:38:54;11.70;99.90
37240;DHT22;23130;48.760;9.178;2023-03-31T14:41:25;11.80;99.90
37240;DHT22;23130;48.760;9.178;2023-03-31T14:43:55;11.90;99.90
37240;DHT22;23130;48.760;9.178;2023-03-31T14:46:22;12.00;99.90
37240;DHT22;23130;48.760;9.178;2023-03-31T14:48:49;12.20;99.90
37240;DHT22;23130;48.760;9.178;2023-03-31T14:51:18;12.30;99.90
37240;DHT22;23130;48.760;9.178;2023-03-31T14:53:54;12.30;99.90
37240;DHT22;23130;48.760;9.178;2023-03-31T14:56:25;12.30;99.90
37240;DHT22;23130;48.760;9.178;2023-03-31T14:58:53;12.50;99.90
37240;DHT22;23130;48.760;9.178;2023-03-31T15:01:24;12.40;99.90
37240;DHT22;23130;48.760;9.178;2023-03-31T15:03:53;12.30;99.90
37240;DHT22;23130;48.760;9.178;2023-03-31T15:06:23;12.40;99.90
37240;DHT22;23130;48.760;9.178;2023-03-31T15:08:51;12.40;99.90
37240;DHT22;23130;48.760;9.178;2023-03-31T15:11:20;12.60;99.90
37240;DHT22;23130;48.760;9.178;2023-03-31T15:13:48;12.60;99.90
37240;DHT22;23130;48.760;9.178;2023-03-31T15:16:48;12.80;99.90
37240;DHT22;23130;48.760;9.178;2023-03-31T15:19:22;12.70;99.90
37240;DHT22;23130;48.760;9.178;2023-03-31T15:21:59;12.70;99.90
37240;DHT22;23130;48.760;9.178;2023-03-31T15:24:29;12.60;99.90
37240;DHT22;23130;48.760;9.178;2023-03-31T15:27:04;12.50;99.90
37240;DHT22;23130;48.760;9.178;2023-03-31T15:30:03;12.50;99.90
37240;DHT22;23130;48.760;9.178;2023-03-31T15:32:33;12.60;99.90
37240;DHT22;23130;48.760;9.178;2023-03-31T15:35:00;12.70;99.90
37240;DHT22;23130;48.760;9.178;2023-03-31T15:37:40;12.70;99.90
37240;DHT22;23130;48.760;9.178;2023-03-31T15:43:16;12.90;99.90
37240;DHT22;23130;48.760;9.178;2023-03-31T15:45:50;12.90;99.90
37240;DHT22;23130;48.760;9.178;2023-03-31T15:48:24;12.80;99.90
37240;DHT22;23130;48.760;9.178;2023-03-31T15:50:58;12.80;99.90
37240;DHT22;23130;48.760;9.178;2023-03-31T15:53:28;12.70;99.90
37240;DHT22;23130;48.760;9.178;2023-03-31T15:55:56;12.60;99.90
37240;DHT22;23130;48.760;9.178;2023-03-31T15:58:45;12.50;99.90
37240;DHT22;23130;48.760;9.178;2023-03-31T16:01:11;12.50;99.90
37240;DHT22;23130;48.760;9.178;2023-03-31T16:03:40;12.40;99.90
37240;DHT22;23130;48.760;9.178;2023-03-31T16:08:56;12.30;99.90
37240;DHT22;23130;48.760;9.178;2023-03-31T16:11:31;12.30;99.90
37240;DHT22;23130;48.760;9.178;2023-03-31T16:13:58;12.20;99.90
37240;DHT22;23130;48.760;9.178;2023-03-31T16:16:26;12.10;99.90
37240;DHT22;23130;48.760;9.178;2023-03-31T16:18:59;12.10;99.90
37240;DHT22;23130;48.760;9.178;2023-03-31T16:21:32;11.90;99.90
37240;DHT22;23130;48.760;9.178;2023-03-31T16:23:59;11.80;99.90
37240;DHT22;23130;48.760;9.178;2023-03-31T16:26:27;11.80;99.90
37240;DHT22;23130;48.760;9.178;2023-03-31T16:28:55;11.70;99.90
37240;DHT22;23130;48.760;9.178;2023-03-31T16:31:31;11.70;99.90
37240;DHT22;23130;48.760;9.178;2023-03-31T16:33:59;11.60;99.90
37240;DHT22;23130;48.760;9.178;2023-03-31T16:36:24;11.50;99.90
37240;DHT22;23130;48.760;9.178;2023-03-31T16:38:51;11.40;99.90
37240;DHT22;23130;48.760;9.178;2023-03-31T16:41:17;11.30;99.90
37240;DHT22;23130;48.760;9.178;2023-03-31T16:43:44;11.10;99.90
37240;DHT22;23130;48.760;9.178;2023-03-31T16:46:09;10.80;99.90
37240;DHT22;23130;48.760;9.178;2023-03-31T16:48:35;10.50;99.90
37240;DHT22;23130;48.760;9.178;2023-03-31T16:51:01;10.40;99.90
37240;DHT22;23130;48.760;9.178;2023-03-31T16:53:32;10.30;99.90
37240;DHT22;23130;48.760;9.178;2023-03-31T16:56:02;10.20;99.90
37240;DHT22;23130;48.760;9.178;2023-03-31T16:58:28;10.20;99.90
37240;DHT22;23130;48.760;9.178;2023-03-31T17:00:55;10.10;99.90
37240;DHT22;23130;48.760;9.178;2023-03-31T17:03:21;10.00;99.90
37240;DHT22;23130;48.760;9.178;2023-03-31T17:05:50;10.00;99.90
37240;DHT22;23130;48.760;9.178;2023-03-31T17:08:18;10.00;99.90
37240;DHT22;23130;48.760;9.178;2023-03-31T17:10:53;9.90;99.90
37240;DHT22;23130;48.760;9.178;2023-03-31T17:13:19;9.80;99.90
37240;DHT22;23130;48.760;9.178;2023-03-31T17:15:45;9.80;99.90
37240;DHT22;23130;48.760;9.178;2023-03-31T17:18:11;9.70;99.90
37240;DHT22;23130;48.760;9.178;2023-03-31T17:20:37;9.60;99.90
37240;DHT22;23130;48.760;9.178;2023-03-31T17:23:02;9.60;99.90
37240;DHT22;23130;48.760;9.178;2023-03-31T17:25:28;9.50;99.90
37240;DHT22;23130;48.760;9.178;2023-03-31T17:27:54;9.50;99.90
37240;DHT22;23130;48.760;9.178;2023-03-31T17:30:21;9.50;99.90
37240;DHT22;23130;48.760;9.178;2023-03-31T17:32:47;9.40;99.90
37240;DHT22;23130;48.760;9.178;2023-03-31T17:35:13;9.40;99.90
37240;DHT22;23130;48.760;9.178;2023-03-31T17:37:45;9.40;99.90
37240;DHT22;23130;48.760;9.178;2023-03-31T17:40:11;9.40;99.90
37240;DHT22;23130;48.760;9.178;2023-03-31T17:42:37;9.30;99.90
37240;DHT22;23130;48.760;9.178;2023-03-31T17:45:03;9.30;99.90
37240;DHT22;23130;48.760;9.178;2023-03-31T17:47:30;9.30;99.90
37240;DHT22;23130;48.760;9.178;2023-03-31T17:49:57;9.30;99.90
37240;DHT22;23130;48.760;9.178;2023-03-31T17:52:23;9.30;99.90
37240;DHT22;23130;48.760;9.178;2023-03-31T17:54:49;9.30;99.90
37240;DHT22;23130;48.760;9.178;2023-03-31T17:57:15;9.30;99.90
37240;DHT22;23130;48.760;9.178;2023-03-31T17:59:41;9.30;99.90
37240;DHT22;23130;48.760;9.178;2023-03-31T18:02:10;9.30;99.90
37240;DHT22;23130;48.760;9.178;2023-03-31T18:04:37;9.40;99.90
37240;DHT22;23130;48.760;9.178;2023-03-31T18:07:02;9.40;99.90
37240;DHT22;23130;48.760;9.178;2023-03-31T18:09:28;9.40;99.90
37240;DHT22;23130;48.760;9.178;2023-03-31T18:11:54;9.50;99.90
37240;DHT22;23130;48.760;9.178;2023-03-31T18:14:19;9.40;99.90
37240;DHT22;23130;48.760;9.178;2023-03-31T18:16:45;9.30;99.90
37240;DHT22;23130;48.760;9.178;2023-03-31T18:19:11;9.30;99.90
37240;DHT22;23130;48.760;9.178;2023-03-31T18:21:37;9.20;99.90
37240;DHT22;23130;48.760;9.178;2023-03-31T18:24:02;9.20;99.90
37240;DHT22;23130;48.760;9.178;2023-03-31T18:26:28;9.10;99.90
37240;DHT22;23130;48.760;9.178;2023-03-31T18:28:54;9.00;99.90
37240;DHT22;23130;48.760;9.178;2023-03-31T18:31:19;9.00;99.90